• Join FlightAware (Why Join?)
  • Login
  • US Flag 
04:09AM EDT


 

Airport Tracker/Info


-or-


 

Live Flight TrackerFlight Track Log ✈ EJA583 ✈ 04-Nov-2013 ✈ KTEB - KMCO

Flight Track Log - Related Links

Times and Time Zones

All times are in EST time to prevent confusion due to time zone crossing. See the EJA583 flight status page for this flight to view local times or setup timezone preferences in your user account.

Time Position Orientation Groundspeed Altitude Reporting Facility
EST Latitude Longitude Course Direction KTS MPH feet Rate Location/Type
01:59PM 40.9000 -74.0500 270° West 217 250 2,500  Level New York TRACON
02:00PM 40.9000 -74.1167 270° West 251 289 5,800 1,740 Climbing New York TRACON
02:01PM 40.8333 -74.1500 201° Southwest 272 313 6,000 1,560 Climbing New York TRACON
02:03PM 40.6719 -74.2131 197° South 289 333 10,900 1,560 Climbing New York Center
02:04PM 40.5658 -74.2050 177° South 332 382 11,200 1,740 Climbing New York Center
02:05PM 40.4706 -74.1894 173° South 351 404 14,400 2,820 Climbing New York Center
02:06PM 40.3875 -74.1744 172° South 350 403 16,900 1,920 Climbing New York Center
02:09PM 40.1700 -74.1989 185° South 351 404 20,500 1,800 Climbing Washington Center
02:10PM 40.0725 -74.2306 194° South 356 410 22,700 2,160 Climbing Washington Center
02:11PM 39.9792 -74.2756 200° South 361 415 24,900 2,160 Climbing Washington Center
02:12PM 39.8986 -74.3503 215° Southwest 354 407 27,100 2,160 Climbing Washington Center
02:13PM 39.8203 -74.4300 218° Southwest 354 407 29,300 2,220 Climbing Washington Center
02:14PM 39.7544 -74.5147 225° Southwest 354 407 31,600 1,980 Climbing Washington Center
02:15PM 39.6906 -74.6019 226° Southwest 341 392 33,200 1,500 Climbing Washington Center
02:16PM 39.6225 -74.6864 224° Southwest 336 387 34,700 1,320 Climbing Washington Center
02:17PM 39.5544 -74.7761 225° Southwest 336 387 35,900 660 Climbing Washington Center
02:18PM 39.4864 -74.8683 226° Southwest 346 398 36,000  Climbing Washington Center
02:19PM 39.4119 -74.9683 226° Southwest 368 423 36,000  Level Washington Center
02:20PM 39.3353 -75.0683 225° Southwest 386 444 36,000  Level Washington Center
02:21PM 39.2397 -75.1386 210° Southwest 396 456 36,000  Level Washington Center
02:22PM 39.1294 -75.1875 199° South 402 463 36,000  Level Washington Center
02:23PM 39.0169 -75.2336 198° South 415 478 36,000  Level Washington Center
02:24PM 38.9067 -75.2822 199° South 415 478 36,000  Level Washington Center
02:25PM 38.7942 -75.3253 197° South 422 486 36,000  Level Washington Center
02:26PM 38.6836 -75.3683 197° South 422 486 36,000  Level Washington Center
02:27PM 38.5711 -75.4192 199° South 427 491 36,000  Level Washington Center
02:28PM 38.4608 -75.4617 197° South 427 491 36,000  Level Washington Center
02:29PM 38.3525 -75.5175 202° Southwest 427 491 36,000  Level Washington Center
02:30PM 38.2525 -75.5811 207° Southwest 422 486 36,000 240 Level Washington Center
02:31PM 38.1544 -75.6497 209° Southwest 405 466 36,600 600 Climbing Washington Center
02:32PM 38.0583 -75.7208 210° Southwest 405 466 37,300 600 Climbing Washington Center
02:33PM 37.9706 -75.7894 212° Southwest 410 472 37,800 600 Climbing Washington Center
02:34PM 37.8558 -75.8628 207° Southwest 410 472 38,500 600 Climbing Washington Center
02:35PM 37.7681 -75.9333 212° Southwest 416 479 39,100 600 Climbing Washington Center
02:36PM 37.6678 -76.0036 209° Southwest 416 479 39,800 420 Climbing Washington Center
02:37PM 37.5675 -76.0739 209° Southwest 416 479 40,000 60 Climbing Washington Center
02:38PM 37.4650 -76.1439 208° Southwest 423 487 40,000  Level Washington Center
02:39PM 37.3519 -76.2164 207° Southwest 418 481 40,000  Level Washington Center
02:40PM 37.2514 -76.2858 209° Southwest 413 475 40,000  Level Washington Center
02:41PM 37.1508 -76.3553 209° Southwest 413 475 40,000  Level Washington Center
02:42PM 37.0503 -76.4272 210° Southwest 413 475 40,000  Level Washington Center
02:43PM 36.9475 -76.4964 208° Southwest 413 475 40,000  Level Washington Center
02:44PM 36.8469 -76.5678 210° Southwest 413 475 40,000  Level Washington Center
02:45PM 36.7461 -76.6367 209° Southwest 413 475 40,000  Level Washington Center
02:46PM 36.6453 -76.7078 210° Southwest 413 475 40,000  Level Washington Center
02:47PM 36.5467 -76.7733 208° Southwest 413 475 40,000  Level Washington Center
02:48PM 36.4436 -76.8417 208° Southwest 413 475 40,000  Level Washington Center
02:49PM 36.3469 -76.9097 210° Southwest 413 475 40,000  Level Washington Center
02:50PM 36.2442 -76.9750 207° Southwest 413 475 40,000  Level Washington Center
02:51PM 36.1453 -77.0453 210° Southwest 413 475 40,000  Level Washington Center
02:52PM 36.0464 -77.1103 208° Southwest 413 475 40,000  Level Washington Center
02:53PM 35.9517 -77.1750 209° Southwest 407 468 40,000  Level Washington Center
02:54PM 35.8525 -77.2422 209° Southwest 407 468 40,000  Level Washington Center
02:55PM 35.7661 -77.2994 208° Southwest 407 468 40,000  Level Washington Center
02:56PM 35.6650 -77.3664 208° Southwest 407 468 40,000  Level Washington Center
02:57PM 35.5783 -77.4536 219° Southwest 407 468 40,000  Level Washington Center
02:58PM 35.4933 -77.5411 220° Southwest 407 468 40,000  Level Washington Center
02:59PM 35.4044 -77.6281 219° Southwest 407 468 40,000  Level Washington Center
03:00PM 35.3194 -77.7125 219° Southwest 407 468 40,000  Level Washington Center
03:01PM 35.2322 -77.7992 219° Southwest 407 468 40,000  Level Washington Center
03:02PM 35.1450 -77.8858 219° Southwest 407 468 40,000  Level Washington Center
03:04PM 34.9683 -78.0644 220° Southwest 412 474 40,000  Level Jacksonville Center
03:05PM 34.8756 -78.1481 216° Southwest 412 474 40,000  Level Jacksonville Center
03:06PM 34.7892 -78.2339 219° Southwest 412 474 40,000  Level Jacksonville Center
03:07PM 34.7069 -78.3242 222° Southwest 412 474 40,000  Level Jacksonville Center
03:08PM 34.6142 -78.4125 218° Southwest 417 480 40,000  Level Jacksonville Center
03:09PM 34.5233 -78.4928 216° Southwest 412 474 40,000  Level Jacksonville Center
03:10PM 34.4367 -78.5878 222° Southwest 412 474 40,000  Level Jacksonville Center
03:11PM 34.3458 -78.6753 219° Southwest 417 480 40,000  Level Jacksonville Center
03:12PM 34.2547 -78.7600 218° Southwest 417 480 40,000  Level Jacksonville Center
03:13PM 34.1658 -78.8469 219° Southwest 417 480 40,000  Level Jacksonville Center
03:15PM 33.9856 -79.0181 218° Southwest 417 480 40,000  Level Jacksonville Center
03:16PM 33.8942 -79.1022 217° Southwest 417 480 40,000  Level Jacksonville Center
03:17PM 33.8028 -79.1886 218° Southwest 417 480 40,000  Level Jacksonville Center
03:18PM 33.7075 -79.2775 218° Southwest 422 486 40,000  Level Jacksonville Center
03:19PM 33.6200 -79.3583 218° Southwest 404 465 40,000  Level Jacksonville Center
03:20PM 33.5283 -79.4442 218° Southwest 410 472 40,000  Level Jacksonville Center
03:21PM 33.4369 -79.5300 218° Southwest 410 472 40,000  Level Jacksonville Center
03:22PM 33.3472 -79.6156 219° Southwest 415 478 40,000  Level Jacksonville Center
03:23PM 33.2578 -79.7006 218° Southwest 420 483 40,000  Level Jacksonville Center
03:24PM 33.1658 -79.7833 217° Southwest 420 483 40,000  Level Jacksonville Center
03:25PM 33.0739 -79.8683 218° Southwest 420 483 40,000  Level Jacksonville Center
03:26PM 32.9819 -79.9531 218° Southwest 420 483 40,000  Level Jacksonville Center
03:27PM 32.8981 -80.0275 217° Southwest 420 483 40,000  Level Jacksonville Center
03:28PM 32.8017 -80.1047 214° Southwest 425 489 40,000  Level Jacksonville Center
03:29PM 32.7011 -80.1769 211° Southwest 425 489 40,000  Level Jacksonville Center
03:30PM 32.6025 -80.2517 213° Southwest 420 483 40,000  Level Jacksonville Center
03:31PM 32.5058 -80.3258 213° Southwest 420 483 40,000  Level Jacksonville Center
03:32PM 32.4072 -80.3975 212° Southwest 425 489 40,000  Level Jacksonville Center
03:33PM 32.3061 -80.4692 211° Southwest 425 489 40,000  Level Jacksonville Center
03:34PM 32.2053 -80.5428 212° Southwest 425 489 40,000  Level Jacksonville Center
03:35PM 32.1003 -80.6217 212° Southwest 424 488 40,000  Level Jacksonville Center
03:36PM 31.9992 -80.6928 211° Southwest 430 495 40,000  Level Jacksonville Center
03:37PM 31.9086 -80.7586 212° Southwest 425 489 40,000  Level Jacksonville Center
03:38PM 31.7950 -80.8394 211° Southwest 425 489 40,000  Level Jacksonville Center
03:39PM 31.6853 -80.8931 203° Southwest 430 495 40,000  Level Jacksonville Center
03:40PM 31.5644 -80.9225 192° South 437 503 40,000  Level Jacksonville Center
03:41PM 31.4544 -80.9492 192° South 443 510 40,000  Level Jacksonville Center
03:42PM 31.3253 -80.9833 193° South 448 516 40,000 -60 Level Jacksonville Center
03:43PM 31.2047 -81.0150 193° South 448 516 39,900 -840 Descending Jacksonville Center
03:44PM 31.0819 -81.0442 192° South 448 516 38,400 -1,500 Descending Jacksonville Center
03:45PM 30.9614 -81.0731 192° South 448 516 36,900 -1,320 Descending Jacksonville Center
03:46PM 30.8364 -81.1047 192° South 448 516 35,800 -1,080 Descending Jacksonville Center
03:47PM 30.7136 -81.1333 191° South 448 516 34,800 -1,020 Descending Jacksonville Center
03:48PM 30.5908 -81.1528 188° South 448 516 33,800 -1,200 Descending Jacksonville Center
03:49PM 30.4633 -81.1500 179° South 448 516 32,500 -1,500 Descending Jacksonville Center
03:50PM 30.3381 -81.1453 178° South 448 516 30,900 -1,260 Descending Jacksonville Center
03:51PM 30.2147 -81.1403 178° South 448 516 30,000 -480 Descending Jacksonville Center
03:52PM 30.0917 -81.1378 179° South 448 516 30,000  Level Jacksonville Center
03:53PM 29.9725 -81.1350 179° South 442 509 30,000 -1,020 Level Jacksonville Center
03:54PM 29.8494 -81.1300 178° South 442 509 28,000 -2,220 Descending Jacksonville Center
03:55PM 29.7219 -81.1300 180° South 442 509 25,600 -2,400 Descending Jacksonville Center
03:56PM 29.6008 -81.1250 178° South 442 509 23,300 -2,340 Descending Jacksonville Center
03:57PM 29.4797 -81.1200 178° South 442 509 21,000 -2,100 Descending Jacksonville Center
03:58PM 29.3753 -81.1172 179° South 429 494 19,200 6,480 Descending Jacksonville Center
03:59PM 29.2644 -81.1119 178° South 418 481 34,000 -2,100 Climbing Jacksonville Center
04:00PM 29.1581 -81.1022 175° South 406 467 15,000 -10,500 Descending Jacksonville Center
04:01PM 29.0514 -81.0969 178° South 394 453 13,000 -1,500 Descending Jacksonville Center
04:02PM 28.9489 -81.0797 172° South 383 441 12,100 -960 Descending Jacksonville Center
04:02PM 28.8667 -81.0833 182° South 337 388 11,400 -1,260 Descending Orlando TRACON
04:03PM 28.7833 -81.1167 199° South 300 345 9,900 -1,200 Descending Orlando TRACON
04:04PM 28.7000 -81.1333 190° South 297 342 9,000 -480 Descending Orlando TRACON
04:05PM 28.6333 -81.1500 192° South 254 292 9,000  Level Orlando TRACON
04:06PM 28.5667 -81.1833 204° Southwest 255 293 9,000 -300 Level Orlando TRACON
04:07PM 28.5000 -81.1833 180° South 247 284 8,400 -1,140 Descending Orlando TRACON
04:08PM 28.4333 -81.1833 180° South 244 281 6,800 -1,560 Descending Orlando TRACON
04:09PM 28.3667 -81.1833 180° South 238 274 5,300 -1,500 Descending Orlando TRACON
04:10PM 28.3000 -81.1833 180° South 228 262 3,800 -1,500 Descending Orlando TRACON
04:11PM 28.2333 -81.2000 192° South 254 292 2,300 -1,140 Descending Orlando TRACON
04:12PM 28.2500 -81.2833 283° West 221 254 1,600 -360 Descending Orlando TRACON
04:13PM 28.2833 -81.3167 319° Northwest 152 175 1,600  Level Orlando TRACON
04:14PM 28.3333 -81.3167 360° North 163 188 1,600 -300 Level Orlando TRACON
04:15PM 28.3667 -81.3333 336° Northwest 147 169 1,100 -600 Descending Orlando TRACON
04:16PM 28.4000 -81.3333 360° North 107 123 500 -600 Descending Orlando TRACON
04:18PM 28.4167 -81.3000 336° Northwest  Level FlightAware Approximate
04:25PM 28.4294 -81.3090 336° Northwest  Level Estimated
04:26PM 28.4294 -81.3090 336° Northwest  Level Estimated
04:27PM 28.4294 -81.3090 336° Northwest  Level Estimated
04:28PM 28.4294 -81.3090 336° Northwest  Level Estimated